^^
Station Historical Data
Daily Summary for July 14, 2017 Units:  English    Metric   Both
« Previous Day
Next Day »
Daily Weekly Monthly Yearly Custom
  High: Low: Average:
Temperature: 69.7 °F 61.6 °F 64.5 °F
Dew Point: 68.5 °F 60.7 °F 63.6 °F
Humidity: 98% 95% 97%
Wind Speed: 5.0mph 0.0mph 0.4mph
Wind Gust: 12.0mph - -
Wind- - WNW
Pressure: 30.10 in 29.98 in -
Precipitation: 0.65 in    
Historical Graphs
 
 
Tabular Data for July 14, 2017
Time Temperature Dew Point Pressure Wind Wind Speed Wind Gust Humidity Rainfall Rate (Hourly) Conditions
00:00 69.7 °F 68.5 °F 30.04 in ENE 2.0 mph 5.0 mph 96% 0.00 in -RA
00:15 68.9 °F 67.4 °F 30.03 in NW 5.0 mph 10.0 mph 95% 0.00 in OVC
00:30 68.1 °F 66.9 °F 30.03 in NNW 2.0 mph 9.0 mph 96% 0.00 in OVC
00:45 67.7 °F 66.5 °F 30.04 in WSW 1.0 mph 7.0 mph 96% 0.00 in OVC
01:00 67.1 °F 65.9 °F 30.03 in Calm   5.0 mph 96% 0.00 in OVC
01:45 65.6 °F 64.4 °F 30.03 in WNW 1.0 mph 8.0 mph 96% 0.00 in CLR
02:00 65.2 °F 64.3 °F 30.03 in WNW 1.0 mph 9.0 mph 97% 0.00 in CLR
02:15 65.0 °F 64.1 °F 30.04 in NW 1.0 mph 5.0 mph 97% 0.00 in CLR
02:30 64.9 °F 64.0 °F 30.04 in NW 1.0 mph 7.0 mph 97% 0.00 in CLR
02:45 64.5 °F 63.6 °F 30.04 in Calm   8.0 mph 97% 0.00 in CLR
03:00 64.2 °F 63.3 °F 30.05 in NNW 2.0 mph 9.0 mph 97% 0.00 in CLR
03:15 63.9 °F 63.0 °F 30.05 in NW 1.0 mph 6.0 mph 97% 0.00 in CLR
03:30 63.8 °F 62.9 °F 30.06 in NNW 1.0 mph 5.0 mph 97% 0.00 in CLR
03:45 63.5 °F 62.6 °F 30.06 in NW 1.0 mph 5.0 mph 97% 0.00 in CLR
04:00 63.2 °F 62.3 °F 30.06 in WNW 1.0 mph 4.0 mph 97% 0.00 in CLR
04:15 63.1 °F 62.2 °F 30.06 in NW 1.0 mph 5.0 mph 97% 0.00 in CLR
04:30 63.0 °F 62.1 °F 30.06 in Calm   4.0 mph 97% 0.00 in CLR
04:45 62.9 °F 62.0 °F 30.06 in WSW 1.0 mph 3.0 mph 97% 0.00 in CLR
05:00 62.7 °F 61.8 °F 30.05 in SW 1.0 mph 5.0 mph 97% 0.00 in CLR
05:15 62.7 °F 61.9 °F 30.05 in Calm   3.0 mph 97% 0.00 in CLR
05:30 62.6 °F 61.8 °F 30.06 in Calm   3.0 mph 97% 0.00 in CLR
05:45 62.4 °F 61.5 °F 30.07 in Calm   2.0 mph 97% 0.00 in CLR
06:00 62.3 °F 61.4 °F 30.07 in Calm   1.0 mph 97% 0.00 in CLR
06:15 62.0 °F 61.1 °F 30.08 in Calm   4.0 mph 97% 0.00 in CLR
06:30 61.9 °F 61.0 °F 30.08 in Calm   3.0 mph 97% 0.00 in CLR
06:45 61.8 °F 61.0 °F 30.09 in Calm   4.0 mph 97% 0.00 in CLR
07:00 61.8 °F 60.9 °F 30.10 in West 1.0 mph 3.0 mph 97% 0.02 in RA
07:15 61.8 °F 60.9 °F 30.10 in Calm   2.0 mph 97% 0.03 in RA
07:30 62.0 °F 61.1 °F 30.09 in Calm   1.0 mph 97% 0.03 in RA
07:46 62.0 °F 61.1 °F 30.09 in Calm   1.0 mph 97% 0.02 in RA
08:00 61.9 °F 61.1 °F 30.08 in Calm   3.0 mph 97% 0.03 in RA
08:15 61.7 °F 60.8 °F 30.08 in Calm   4.0 mph 97% 0.04 in -RA
08:30 61.6 °F 60.7 °F 30.09 in Calm   3.0 mph 97% 0.04 in -RA
08:45 61.7 °F 60.8 °F 30.09 in Calm   1.0 mph 97% 0.06 in -RA
09:00 61.8 °F 60.9 °F 30.10 in Calm   2.0 mph 97% 0.09 in -RA
09:15 61.8 °F 60.9 °F 30.10 in Calm   2.0 mph 97% 0.04 in RA
09:30 61.8 °F 61.0 °F 30.10 in Calm   2.0 mph 97% 0.04 in RA
09:45 62.1 °F 61.2 °F 30.10 in Calm   2.0 mph 97% 0.03 in RA
10:00 62.2 °F 61.3 °F 30.09 in NW 1.0 mph 3.0 mph 97% 0.02 in RA
10:15 62.5 °F 61.7 °F 30.10 in Calm   4.0 mph 97% 0.02 in RA
10:30 62.8 °F 61.9 °F 30.10 in Calm   4.0 mph 97% 0.01 in OVC
10:45 63.4 °F 62.5 °F 30.10 in Calm   2.0 mph 97% 0.00 in OVC
11:00 63.9 °F 63.1 °F 30.08 in West 1.0 mph 2.0 mph 97% 0.01 in RA
11:15 63.8 °F 62.6 °F 30.08 in Calm   4.0 mph 96% 0.00 in -RA
11:30 63.8 °F 62.7 °F 30.07 in North 2.0 mph 4.0 mph 96% 0.01 in -RA
11:45 64.0 °F 62.8 °F 30.07 in Calm   7.0 mph 96% 0.00 in -RA
12:00 64.1 °F 62.9 °F 30.08 in Calm   5.0 mph 96% 0.00 in -RA
12:15 63.9 °F 62.7 °F 30.08 in Calm   6.0 mph 96% 0.00 in -RA
12:30 64.2 °F 63.0 °F 30.08 in Calm   2.0 mph 96% 0.00 in -RA
12:45 64.1 °F 62.9 °F 30.08 in Calm   2.0 mph 96% 0.00 in -RA
13:00 64.2 °F 63.0 °F 30.08 in Calm   2.0 mph 96% 0.00 in -RA
13:15 64.4 °F 63.2 °F 30.07 in WSW 1.0 mph 3.0 mph 96% 0.00 in OVC
13:30 64.4 °F 63.2 °F 30.07 in NE 1.0 mph 4.0 mph 96% 0.00 in OVC
13:45 64.7 °F 63.5 °F 30.07 in Calm   2.0 mph 96% 0.00 in OVC
14:00 64.9 °F 63.7 °F 30.07 in Calm   3.0 mph 96% 0.01 in RA
14:15 64.9 °F 63.7 °F 30.07 in Calm   2.0 mph 96% 0.00 in -RA
14:30 65.0 °F 63.8 °F 30.07 in Calm   2.0 mph 96% 0.01 in -RA
14:45 65.1 °F 63.9 °F 30.06 in Calm   2.0 mph 96% 0.00 in -RA
15:00 65.3 °F 64.4 °F 30.04 in Calm   3.0 mph 97% 0.00 in -RA
15:15 65.4 °F 64.2 °F 30.04 in Calm   3.0 mph 96% 0.00 in -RA
15:30 65.3 °F 64.1 °F 30.04 in Calm   2.0 mph 96% 0.01 in -RA
15:45 65.5 °F 64.6 °F 30.04 in Calm   1.0 mph 97% 0.02 in -RA
16:00 65.5 °F 64.3 °F 30.03 in Calm   3.0 mph 96% 0.01 in -RA
16:15 65.4 °F 64.6 °F 30.00 in NW 1.0 mph 7.0 mph 97% 0.02 in -RA
16:30 65.6 °F 64.7 °F 29.99 in NW 1.0 mph 12.0 mph 97% 0.01 in -RA
16:45 65.6 °F 64.7 °F 30.04 in Calm   4.0 mph 97% 0.01 in -RA
17:00 65.8 °F 64.9 °F 30.03 in Calm   2.0 mph 97% 0.00 in -RA
17:15 66.1 °F 65.2 °F 30.03 in Calm   2.0 mph 97% 0.00 in -RA
17:30 66.0 °F 65.2 °F 30.03 in Calm   2.0 mph 97% 0.00 in -RA
17:45 66.1 °F 65.2 °F 30.02 in NNW 2.0 mph 4.0 mph 97% 0.00 in -RA
18:00 66.3 °F 65.4 °F 30.01 in Calm   5.0 mph 97% 0.00 in -RA
18:15 66.1 °F 65.2 °F 30.00 in Calm   5.0 mph 97% 0.00 in -DZ
18:30 65.9 °F 65.0 °F 30.00 in East 1.0 mph 7.0 mph 97% 0.00 in -DZ
18:45 65.8 °F 65.0 °F 30.01 in Calm   6.0 mph 97% 0.00 in -DZ
19:00 65.6 °F 64.8 °F 30.01 in WNW 1.0 mph 5.0 mph 97% 0.00 in -DZ
19:15 65.6 °F 64.7 °F 30.02 in North 1.0 mph 7.0 mph 97% 0.00 in -DZ
19:30 65.6 °F 64.7 °F 30.01 in Calm   4.0 mph 97% 0.00 in -DZ
19:45 65.6 °F 64.7 °F 30.02 in Calm   4.0 mph 97% 0.00 in -DZ
20:00 65.6 °F 64.7 °F 30.01 in NNW 1.0 mph 3.0 mph 97% 0.00 in -DZ
20:15 65.5 °F 64.6 °F 30.00 in Calm   4.0 mph 97% 0.00 in -DZ
20:30 65.5 °F 64.6 °F 30.00 in Calm   3.0 mph 97% 0.00 in -DZ
20:45 65.5 °F 64.6 °F 29.99 in NNW 1.0 mph 5.0 mph 97% 0.00 in -DZ
21:00 65.5 °F 64.6 °F 29.99 in West 1.0 mph 3.0 mph 97% 0.00 in -DZ
21:15 65.6 °F 64.7 °F 30.00 in WNW 1.0 mph 4.0 mph 97% 0.00 in CLR
21:30 65.8 °F 65.2 °F 30.00 in Calm   3.0 mph 98% 0.00 in CLR
21:45 65.9 °F 65.3 °F 30.00 in Calm   4.0 mph 98% 0.00 in CLR
22:00 66.0 °F 65.4 °F 30.01 in Calm   2.0 mph 98% 0.00 in CLR
22:15 66.3 °F 65.7 °F 30.01 in Calm   2.0 mph 98% 0.00 in CLR
22:30 66.3 °F 65.7 °F 30.01 in Calm   3.0 mph 98% 0.01 in
22:45 66.2 °F 65.6 °F 30.00 in NW 1.0 mph 3.0 mph 98% 0.00 in
23:00 66.2 °F 65.6 °F 30.00 in Calm   3.0 mph 98% 0.00 in
23:15 66.1 °F 65.5 °F 29.99 in Calm   2.0 mph 98% 0.00 in
23:30 66.1 °F 65.5 °F 29.99 in Calm   3.0 mph 98% 0.00 in CLR
23:45 65.9 °F 65.3 °F 29.98 in Calm   2.0 mph 98% 0.00 in CLR
TarryTown NY Weather
Compliments of Weather Underground - 1.5 mb